createdAt,value
2019-04-03T00:00:56.537Z,56.90
2019-04-03T00:03:26.459Z,57.30
2019-04-03T00:05:56.427Z,57.60
2019-04-03T00:08:26.449Z,57.90
2019-04-03T00:10:56.403Z,58.00
2019-04-03T00:13:26.327Z,58.30
2019-04-03T00:15:56.269Z,58.40
2019-04-03T00:18:26.191Z,58.70
2019-04-03T00:20:56.074Z,59.80
2019-04-03T00:23:25.998Z,59.50
2019-04-03T00:25:56.032Z,59.40
2019-04-03T00:28:25.956Z,59.70
2019-04-03T00:30:55.831Z,60.20
2019-04-03T00:33:25.856Z,60.70
2019-04-03T00:35:55.749Z,60.70
2019-04-03T00:38:25.760Z,61.10
2019-04-03T00:40:55.781Z,60.00
2019-04-03T00:43:25.848Z,60.50
2019-04-03T00:45:56.453Z,60.90
2019-04-03T00:48:26.427Z,60.70
2019-04-03T00:50:57.545Z,60.80
2019-04-03T00:53:28.209Z,61.30
2019-04-03T00:55:58.206Z,61.60
2019-04-03T00:58:39.434Z,62.20
2019-04-03T01:01:11.419Z,63.10
2019-04-03T01:03:42.312Z,63.30
2019-04-03T01:06:12.279Z,63.50
2019-04-03T01:08:42.195Z,63.80
2019-04-03T01:11:12.293Z,63.90
2019-04-03T01:13:42.424Z,63.90
2019-04-03T01:16:12.352Z,64.10
2019-04-03T01:18:42.289Z,65.20
2019-04-03T01:21:12.249Z,65.40
2019-04-03T01:23:42.405Z,65.20
2019-04-03T01:26:12.422Z,65.10
2019-04-03T01:28:42.541Z,65.40
2019-04-03T01:31:14.225Z,65.20
2019-04-03T01:33:46.121Z,65.70
2019-04-03T01:36:17.557Z,65.60
2019-04-03T01:38:49.721Z,65.80
2019-04-03T01:41:21.229Z,65.80
2019-04-03T01:43:53.154Z,66.00
2019-04-03T01:46:22.900Z,66.20
2019-04-03T01:48:52.880Z,66.30
2019-04-03T01:51:22.940Z,66.80
2019-04-03T01:53:53.025Z,67.10
2019-04-03T01:56:24.006Z,67.10
2019-04-03T01:58:53.928Z,67.40
2019-04-03T02:01:23.804Z,67.40
2019-04-03T02:03:53.676Z,68.00
2019-04-03T02:06:23.704Z,67.80
2019-04-03T02:08:53.582Z,68.10
2019-04-03T02:11:23.531Z,67.90
2019-04-03T02:13:53.472Z,68.10
2019-04-03T02:16:23.627Z,68.30
2019-04-03T02:18:55.291Z,68.40
2019-04-03T02:21:27.200Z,68.90
2019-04-03T02:23:56.953Z,69.10
2019-04-03T02:26:27.278Z,69.80
2019-04-03T02:28:57.141Z,69.60
2019-04-03T02:31:27.111Z,69.20
2019-04-03T02:33:57.063Z,69.10
2019-04-03T02:36:26.968Z,69.20
2019-04-03T02:38:56.915Z,69.50
2019-04-03T02:41:27.100Z,69.60
2019-04-03T02:43:57.224Z,69.30
2019-04-03T02:46:28.659Z,69.00
2019-04-03T02:48:59.014Z,69.10
2019-04-03T02:51:29.315Z,68.90
2019-04-03T02:54:02.519Z,68.80
2019-04-03T02:56:31.793Z,68.60
2019-04-03T02:59:01.748Z,68.70
2019-04-03T03:01:31.718Z,68.80
2019-04-03T03:04:01.988Z,69.20
2019-04-03T03:06:33.119Z,69.40
2019-04-03T03:09:05.313Z,69.80
2019-04-03T03:11:35.678Z,70.10
2019-04-03T03:14:07.889Z,70.30
2019-04-03T03:16:38.325Z,70.40
2019-04-03T03:19:08.615Z,70.50
2019-04-03T03:21:39.711Z,70.60
2019-04-03T03:24:10.384Z,70.20
2019-04-03T03:26:40.397Z,70.50
2019-04-03T03:29:17.941Z,71.20
2019-04-03T03:32:05.287Z,71.40
2019-04-03T03:34:14.527Z,71.10
2019-04-03T03:36:45.816Z,71.40
2019-04-03T03:39:16.237Z,72.00
2019-04-03T03:41:46.753Z,71.40
2019-04-03T03:44:18.217Z,71.40
2019-04-03T03:46:48.478Z,71.30
2019-04-03T03:49:18.934Z,71.10
2019-04-03T03:51:50.661Z,70.90
2019-04-03T03:54:21.035Z,71.20
2019-04-03T03:56:51.748Z,70.90
2019-04-03T03:59:21.913Z,70.70
2019-04-03T04:01:51.952Z,71.20
2019-04-03T04:04:22.049Z,71.10
2019-04-03T04:06:52.255Z,70.70
2019-04-03T04:09:22.444Z,71.50
2019-04-03T04:11:53.183Z,71.80
2019-04-03T04:14:23.636Z,72.20
2019-04-03T04:16:55.547Z,71.30
2019-04-03T04:19:28.497Z,71.00
2019-04-03T04:21:57.545Z,71.10
2019-04-03T04:24:28.637Z,71.50
2019-04-03T04:26:58.996Z,72.00
2019-04-03T04:29:28.932Z,72.20
2019-04-03T04:31:58.934Z,72.30
2019-04-03T04:34:28.875Z,72.50
2019-04-03T04:37:01.741Z,72.60
2019-04-03T04:39:30.466Z,72.70
2019-04-03T04:42:01.921Z,72.50
2019-04-03T04:44:32.021Z,72.80
2019-04-03T04:47:01.909Z,72.40
2019-04-03T04:49:32.211Z,72.50
2019-04-03T04:52:02.482Z,72.50
2019-04-03T04:54:32.425Z,72.50
2019-04-03T04:57:02.382Z,72.50
2019-04-03T04:59:32.370Z,72.40
2019-04-03T05:02:02.537Z,72.50
2019-04-03T05:04:32.821Z,72.50
2019-04-03T05:07:02.799Z,72.10
2019-04-03T05:09:34.652Z,72.30
2019-04-03T05:12:04.351Z,72.10
2019-04-03T05:14:34.433Z,72.00
2019-04-03T05:17:04.435Z,72.00
2019-04-03T05:19:34.281Z,72.00
2019-04-03T05:22:04.226Z,71.80
2019-04-03T05:24:34.267Z,71.50
2019-04-03T05:27:07.101Z,70.90
2019-04-03T05:29:36.047Z,71.10
2019-04-03T05:32:06.110Z,71.10
2019-04-03T05:34:36.058Z,70.90
2019-04-03T05:37:06.173Z,71.10
2019-04-03T05:39:36.244Z,70.90
2019-04-03T05:42:06.761Z,70.70
2019-04-03T05:44:36.843Z,70.40
2019-04-03T05:47:07.874Z,70.20
2019-04-03T05:49:38.528Z,70.10
2019-04-03T05:52:21.024Z,69.80
2019-04-03T05:54:50.969Z,70.10
2019-04-03T05:57:20.941Z,69.80
2019-04-03T06:00:00.013Z,69.70
2019-04-03T06:02:22.539Z,69.30
2019-04-03T06:04:52.709Z,69.30
2019-04-03T06:07:23.104Z,69.20
2019-04-03T06:09:53.876Z,69.30
2019-04-03T06:12:24.680Z,69.10
2019-04-03T06:14:54.640Z,68.70
2019-04-03T06:17:24.650Z,68.30
2019-04-03T06:19:54.630Z,68.60
2019-04-03T06:22:24.505Z,69.50
2019-04-03T06:24:56.314Z,68.90
2019-04-03T06:27:27.945Z,69.30
2019-04-03T06:29:58.113Z,69.70
2019-04-03T06:32:29.232Z,69.40
2019-04-03T06:34:59.843Z,69.10
2019-04-03T06:37:29.762Z,68.90
2019-04-03T06:40:02.310Z,68.50
2019-04-03T06:42:32.271Z,68.00
2019-04-03T06:45:03.202Z,67.80
2019-04-03T06:47:33.715Z,68.00
2019-04-03T06:50:05.465Z,68.80
2019-04-03T06:52:35.376Z,68.20
2019-04-03T06:55:06.065Z,67.60
2019-04-03T06:57:35.942Z,67.00
2019-04-03T07:00:06.308Z,66.80
2019-04-03T07:02:36.186Z,66.30
2019-04-03T07:05:07.999Z,65.60
2019-04-03T07:07:38.321Z,64.10
2019-04-03T07:10:09.626Z,64.20
2019-04-03T07:12:39.946Z,63.10
2019-04-03T07:15:10.308Z,62.40
2019-04-03T07:17:40.270Z,61.50
2019-04-03T07:20:14.153Z,61.10
2019-04-03T07:22:42.010Z,60.60
2019-04-03T07:25:12.072Z,59.80
2019-04-03T07:27:42.421Z,59.50
2019-04-03T07:30:12.823Z,58.40
2019-04-03T07:32:42.700Z,58.50
2019-04-03T07:35:12.734Z,58.10
2019-04-03T07:37:42.655Z,57.80
2019-04-03T07:40:12.783Z,57.70
2019-04-03T07:42:42.667Z,56.30
2019-04-03T07:45:13.231Z,55.60
2019-04-03T07:47:43.099Z,55.00
2019-04-03T07:50:14.394Z,53.60
2019-04-03T07:52:45.876Z,52.80
2019-04-03T07:55:15.956Z,51.50
2019-04-03T07:57:45.811Z,50.60
2019-04-03T08:00:16.016Z,49.50
2019-04-03T08:02:48.669Z,48.70
2019-04-03T08:05:17.720Z,48.10
2019-04-03T08:07:47.823Z,48.10
2019-04-03T08:10:18.024Z,47.20
2019-04-03T08:12:47.927Z,46.90
2019-04-03T08:15:18.183Z,46.50
2019-04-03T08:17:49.901Z,46.30
2019-04-03T08:20:20.507Z,45.70
2019-04-03T08:22:50.518Z,45.50
2019-04-03T08:25:20.644Z,44.90
2019-04-03T08:27:50.623Z,44.60
2019-04-03T08:30:20.622Z,45.40
2019-04-03T08:32:50.502Z,45.40
2019-04-03T08:35:23.160Z,44.70
2019-04-03T08:37:52.051Z,43.90
2019-04-03T08:40:21.891Z,43.20
2019-04-03T08:42:52.234Z,42.00
2019-04-03T08:45:22.266Z,42.70
2019-04-03T08:47:52.332Z,42.30
2019-04-03T08:50:22.419Z,42.40
2019-04-03T08:52:52.387Z,43.20
2019-04-03T08:55:22.306Z,42.40
2019-04-03T08:57:52.920Z,42.60
2019-04-03T09:00:23.439Z,43.30
2019-04-03T09:02:53.583Z,42.30
2019-04-03T09:05:23.787Z,42.10
2019-04-03T09:07:55.764Z,41.20
2019-04-03T09:10:25.346Z,40.50
2019-04-03T09:12:55.203Z,39.60
2019-04-03T09:15:27.350Z,38.60
2019-04-03T09:17:56.631Z,39.50
2019-04-03T09:20:26.728Z,38.30
2019-04-03T09:22:56.662Z,37.20
2019-04-03T09:25:26.524Z,37.80
2019-04-03T09:27:56.458Z,37.40
2019-04-03T09:30:26.618Z,37.10
2019-04-03T09:32:59.104Z,37.10
2019-04-03T09:35:28.145Z,36.60
2019-04-03T09:37:58.069Z,36.40
2019-04-03T09:40:28.002Z,35.30
2019-04-03T09:42:57.859Z,34.20
2019-04-03T09:45:29.096Z,33.50
2019-04-03T09:48:00.314Z,31.30
2019-04-03T09:50:30.306Z,29.60
2019-04-03T09:53:02.328Z,28.20
2019-04-03T09:55:35.878Z,28.10
2019-04-03T09:58:04.292Z,28.10
2019-04-03T10:00:34.364Z,27.00
2019-04-03T10:03:05.864Z,27.60
2019-04-03T10:05:37.118Z,27.30
2019-04-03T10:08:08.466Z,27.40
2019-04-03T10:10:38.641Z,25.90
2019-04-03T10:13:08.847Z,26.50
2019-04-03T10:15:38.824Z,26.00
2019-04-03T10:18:09.989Z,26.50
2019-04-03T10:20:40.105Z,25.20
2019-04-03T10:23:10.913Z,25.40
2019-04-03T10:25:40.947Z,26.60
2019-04-03T10:28:13.742Z,27.70
2019-04-03T10:30:42.413Z,28.00
2019-04-03T10:33:12.269Z,28.00
2019-04-03T10:35:42.208Z,28.40
2019-04-03T10:38:12.139Z,29.80
2019-04-03T10:40:42.178Z,29.30
2019-04-03T10:43:18.032Z,28.90
2019-04-03T10:45:48.224Z,29.30
2019-04-03T10:48:18.291Z,29.10
2019-04-03T10:50:48.296Z,28.60
2019-04-03T10:53:19.976Z,27.70
2019-04-03T10:55:50.100Z,25.80
2019-04-03T10:58:20.109Z,24.40
2019-04-03T11:00:50.264Z,25.10
2019-04-03T11:03:21.203Z,23.80
2019-04-03T11:05:51.062Z,23.50
2019-04-03T11:08:20.904Z,24.40
2019-04-03T11:10:50.831Z,24.60
2019-04-03T11:13:20.754Z,23.60
2019-04-03T11:15:51.781Z,23.20
2019-04-03T11:18:21.852Z,22.70
2019-04-03T11:20:52.099Z,23.50
2019-04-03T11:23:36.946Z,22.30
2019-04-03T11:25:53.746Z,23.20
2019-04-03T11:28:23.944Z,23.20
2019-04-03T11:30:55.912Z,23.20
2019-04-03T11:33:25.687Z,23.60
2019-04-03T11:35:55.574Z,24.40
2019-04-03T11:38:28.224Z,24.00
2019-04-03T11:40:57.079Z,23.50
2019-04-03T11:43:27.054Z,22.80
2019-04-03T11:45:57.409Z,22.10
2019-04-03T11:48:27.754Z,22.80
2019-04-03T11:50:58.101Z,22.30
2019-04-03T11:53:28.239Z,21.80
2019-04-03T11:55:58.136Z,22.10
2019-04-03T11:58:28.272Z,21.60
2019-04-03T12:00:58.565Z,21.30
2019-04-03T12:03:28.822Z,21.40
2019-04-03T12:05:58.935Z,21.90
2019-04-03T12:08:29.469Z,22.50
2019-04-03T12:10:59.544Z,22.80
2019-04-03T12:13:29.567Z,24.70
2019-04-03T12:15:59.474Z,24.40
2019-04-03T12:18:29.510Z,23.50
2019-04-03T12:21:00.963Z,23.80
2019-04-03T12:23:31.229Z,24.80
2019-04-03T12:26:01.314Z,25.20
2019-04-03T12:28:31.603Z,26.00
2019-04-03T12:31:01.970Z,25.30
2019-04-03T12:33:32.184Z,25.60
2019-04-03T12:36:06.116Z,25.60
2019-04-03T12:38:35.214Z,25.50
2019-04-03T12:41:05.565Z,26.40
2019-04-03T12:43:36.175Z,27.60
2019-04-03T12:46:06.323Z,26.90
2019-04-03T12:48:36.208Z,26.20
2019-04-03T12:51:06.453Z,25.40
2019-04-03T12:53:36.747Z,24.80
2019-04-03T12:56:06.706Z,26.20
2019-04-03T12:58:38.011Z,27.40
2019-04-03T13:01:10.741Z,26.90
2019-04-03T13:03:39.754Z,27.50
2019-04-03T13:06:10.349Z,27.40
2019-04-03T13:08:40.787Z,27.40
2019-04-03T13:11:10.937Z,27.30
2019-04-03T13:13:41.254Z,28.90
2019-04-03T13:16:11.748Z,29.90
2019-04-03T13:18:42.032Z,29.30
2019-04-03T13:21:11.996Z,28.40
2019-04-03T13:23:45.152Z,27.70
2019-04-03T13:26:13.539Z,28.60
2019-04-03T13:28:43.478Z,29.10
2019-04-03T13:31:15.027Z,29.70
2019-04-03T13:33:44.957Z,30.20
2019-04-03T13:36:15.175Z,31.50
2019-04-03T13:38:45.113Z,32.50
2019-04-03T13:41:14.985Z,34.00
2019-04-03T13:43:44.895Z,35.40
2019-04-03T13:46:14.756Z,37.30
2019-04-03T13:48:45.273Z,37.90
2019-04-03T13:51:15.745Z,39.30
2019-04-03T13:53:45.676Z,39.60
2019-04-03T13:56:15.615Z,40.30
2019-04-03T13:58:45.467Z,40.40
2019-04-03T14:01:15.901Z,40.40
2019-04-03T14:03:46.352Z,40.50
2019-04-03T14:06:16.423Z,39.90
2019-04-03T14:08:47.339Z,40.00
2019-04-03T14:11:17.354Z,40.10
2019-04-03T14:13:47.236Z,39.90
2019-04-03T14:16:21.374Z,39.90
2019-04-03T14:18:50.504Z,39.60
2019-04-03T14:21:20.235Z,39.50
2019-04-03T14:23:51.159Z,40.10
2019-04-03T14:26:22.115Z,40.30
2019-04-03T14:28:52.125Z,41.10
2019-04-03T14:31:33.561Z,40.70
2019-04-03T14:33:56.693Z,40.10
2019-04-03T14:36:27.414Z,40.00
2019-04-03T14:38:57.851Z,40.30
2019-04-03T14:41:27.772Z,40.20
2019-04-03T14:43:57.727Z,40.40
2019-04-03T14:46:28.104Z,39.90
2019-04-03T14:48:59.638Z,39.80
2019-04-03T14:51:29.665Z,40.70
2019-04-03T14:53:59.857Z,40.50
2019-04-03T14:56:32.706Z,40.30
2019-04-03T14:59:01.688Z,40.60
2019-04-03T15:01:31.872Z,40.00
2019-04-03T15:04:02.296Z,38.90
2019-04-03T15:06:32.285Z,38.70
2019-04-03T15:09:03.520Z,38.70
2019-04-03T15:11:34.948Z,38.00
2019-04-03T15:14:05.336Z,37.40
2019-04-03T15:16:35.279Z,37.60
2019-04-03T15:19:05.306Z,37.40
2019-04-03T15:21:35.249Z,37.70
2019-04-03T15:24:05.731Z,37.90
2019-04-03T15:26:36.227Z,37.80
2019-04-03T15:29:06.400Z,37.90
2019-04-03T15:31:36.328Z,37.70
2019-04-03T15:34:06.257Z,37.80
2019-04-03T15:36:36.686Z,37.60
2019-04-03T15:39:10.525Z,36.40
2019-04-03T15:41:40.577Z,36.50
2019-04-03T15:44:10.613Z,36.20
2019-04-03T15:46:40.521Z,35.40
2019-04-03T15:49:10.436Z,34.90
2019-04-03T15:51:40.520Z,34.10
2019-04-03T15:54:10.560Z,33.70
2019-04-03T15:56:42.190Z,33.60
2019-04-03T15:59:13.183Z,33.50
2019-04-03T16:01:43.412Z,33.70
2019-04-03T16:04:14.876Z,33.70
2019-04-03T16:06:45.065Z,33.50
2019-04-03T16:09:17.214Z,33.80
2019-04-03T16:11:47.007Z,33.90
2019-04-03T16:14:19.916Z,33.50
2019-04-03T16:16:48.551Z,34.20
2019-04-03T16:19:18.734Z,34.30
2019-04-03T16:21:48.727Z,34.30
2019-04-03T16:24:18.997Z,34.40
2019-04-03T16:26:50.481Z,34.10
2019-04-03T16:29:20.998Z,34.20
2019-04-03T16:31:53.719Z,34.50
2019-04-03T16:34:22.961Z,34.30
2019-04-03T16:36:55.709Z,34.90
2019-04-03T16:39:25.780Z,34.80
2019-04-03T16:41:55.947Z,35.10
2019-04-03T16:44:26.880Z,35.10
2019-04-03T16:46:57.281Z,35.00
2019-04-03T16:49:28.600Z,35.10
2019-04-03T16:51:59.017Z,35.70
2019-04-03T16:54:32.723Z,35.10
2019-04-03T16:57:03.587Z,34.90
2019-04-03T16:59:35.337Z,34.90
2019-04-03T17:02:05.227Z,34.40
2019-04-03T17:04:36.087Z,34.20
2019-04-03T17:07:06.932Z,34.60
2019-04-03T17:09:38.242Z,34.20
2019-04-03T17:12:08.453Z,34.00
2019-04-03T17:14:38.766Z,34.10
2019-04-03T17:17:12.420Z,34.10
2019-04-03T17:19:40.989Z,34.60
2019-04-03T17:22:14.158Z,34.90
2019-04-03T17:24:48.431Z,34.90
2019-04-03T17:27:15.886Z,34.50
2019-04-03T17:29:47.188Z,34.60
2019-04-03T17:32:17.603Z,34.90
2019-04-03T17:34:48.659Z,35.00
2019-04-03T17:37:20.592Z,35.20
2019-04-03T17:39:52.343Z,35.30
2019-04-03T17:42:25.602Z,35.50
2019-04-03T17:44:57.200Z,35.80
2019-04-03T17:47:26.847Z,35.70
2019-04-03T17:49:59.041Z,36.00
2019-04-03T17:52:28.368Z,36.10
2019-04-03T17:54:58.312Z,36.10
2019-04-03T17:57:28.348Z,36.10
2019-04-03T17:59:58.216Z,36.30
2019-04-03T18:02:29.615Z,36.70
2019-04-03T18:04:59.731Z,37.10
2019-04-03T18:07:29.705Z,36.30
2019-04-03T18:09:59.649Z,36.30
2019-04-03T18:12:29.591Z,36.50
2019-04-03T18:14:59.457Z,36.60
2019-04-03T18:17:29.952Z,36.60
2019-04-03T18:20:00.932Z,36.70
2019-04-03T18:22:32.108Z,36.60
2019-04-03T18:25:02.066Z,36.80
2019-04-03T18:27:33.504Z,37.10
2019-04-03T18:30:05.069Z,37.60
2019-04-03T18:32:36.071Z,43.30
2019-04-03T18:35:07.558Z,47.50
2019-04-03T18:37:40.691Z,49.70
2019-04-03T18:40:14.325Z,51.70
2019-04-03T18:42:44.062Z,53.60
2019-04-03T18:45:24.932Z,55.30
2019-04-03T18:47:47.307Z,57.50
2019-04-03T18:50:19.048Z,58.80
2019-04-03T18:52:50.660Z,59.70
2019-04-03T18:55:34.554Z,61.20
2019-04-03T18:58:24.356Z,63.00
2019-04-03T19:01:07.426Z,64.00
2019-04-03T19:03:42.823Z,63.90
2019-04-03T19:06:14.591Z,64.30
2019-04-03T19:08:49.658Z,64.70
2019-04-03T19:11:19.869Z,65.40
2019-04-03T19:13:50.856Z,65.80
2019-04-03T19:16:29.315Z,64.90
2019-04-03T19:18:53.365Z,65.20
2019-04-03T19:21:28.264Z,65.50
2019-04-03T19:23:57.336Z,66.40
2019-04-03T19:26:27.293Z,67.70
2019-04-03T19:28:57.235Z,67.80
2019-04-03T19:31:28.354Z,68.00
2019-04-03T19:33:58.688Z,68.00
2019-04-03T19:36:30.365Z,68.20
2019-04-03T19:39:00.487Z,68.20
2019-04-03T19:41:32.034Z,68.20
2019-04-03T19:44:01.969Z,68.00
2019-04-03T19:46:32.172Z,68.20
2019-04-03T19:49:02.155Z,68.30
2019-04-03T19:51:32.026Z,68.60
2019-04-03T19:54:01.889Z,68.80
2019-04-03T19:56:31.849Z,69.30
2019-04-03T19:59:04.645Z,68.90
2019-04-03T20:01:33.376Z,69.10
2019-04-03T20:04:04.395Z,69.40
2019-04-03T20:06:34.320Z,68.70
2019-04-03T20:09:07.274Z,68.70
2019-04-03T20:11:37.481Z,68.50
2019-04-03T20:14:07.431Z,68.40
2019-04-03T20:16:37.346Z,67.80
2019-04-03T20:19:07.227Z,67.90
2019-04-03T20:21:37.144Z,67.70
2019-04-03T20:24:07.030Z,68.40
2019-04-03T20:26:36.940Z,67.80
2019-04-03T20:29:06.800Z,68.00
2019-04-03T20:31:36.718Z,69.60
2019-04-03T20:34:06.731Z,68.70
2019-04-03T20:36:36.707Z,68.90
2019-04-03T20:39:08.881Z,68.80
2019-04-03T20:41:38.778Z,69.00
2019-04-03T20:44:08.642Z,68.40
2019-04-03T20:46:38.559Z,68.50
2019-04-03T20:49:08.459Z,69.20
2019-04-03T20:51:39.871Z,69.30
2019-04-03T20:54:11.725Z,70.10
2019-04-03T20:56:41.893Z,70.10
2019-04-03T20:59:12.216Z,70.20
2019-04-03T21:01:42.135Z,70.10
2019-04-03T21:04:14.617Z,70.50
2019-04-03T21:06:44.016Z,70.00
2019-04-03T21:09:15.256Z,70.20
2019-04-03T21:11:45.172Z,71.00
2019-04-03T21:14:15.110Z,70.30
2019-04-03T21:16:47.699Z,70.50
2019-04-03T21:19:16.529Z,70.30
2019-04-03T21:21:47.033Z,70.40
2019-04-03T21:24:18.028Z,70.40
2019-04-03T21:26:47.896Z,70.10
2019-04-03T21:29:17.822Z,70.50
2019-04-03T21:31:47.804Z,70.50
2019-04-03T21:34:18.733Z,70.30
2019-04-03T21:36:48.672Z,70.30
2019-04-03T21:39:18.620Z,70.00
2019-04-03T21:41:48.619Z,70.60
2019-04-03T21:44:18.611Z,72.00
2019-04-03T21:46:48.552Z,71.90
2019-04-03T21:49:18.514Z,72.10
2019-04-03T21:51:49.970Z,73.10
2019-04-03T21:54:30.516Z,73.10
2019-04-03T21:57:00.409Z,73.10
2019-04-03T21:59:30.347Z,72.50
2019-04-03T22:02:03.434Z,72.40
2019-04-03T22:04:33.450Z,72.00
2019-04-03T22:07:03.432Z,72.20
2019-04-03T22:09:33.503Z,72.30
2019-04-03T22:12:05.548Z,72.70
2019-04-03T22:14:35.211Z,73.70
2019-04-03T22:17:05.212Z,73.70
2019-04-03T22:19:35.134Z,72.80
2019-04-03T22:22:05.054Z,72.80
2019-04-03T22:24:37.530Z,73.60
2019-04-03T22:27:06.463Z,73.10
2019-04-03T22:29:36.413Z,73.10
2019-04-03T22:32:06.251Z,74.00
2019-04-03T22:34:36.095Z,74.00
2019-04-03T22:37:05.953Z,73.80
2019-04-03T22:39:37.038Z,73.90
2019-04-03T22:42:07.442Z,73.80
2019-04-03T22:44:37.384Z,74.30
2019-04-03T22:47:07.357Z,74.30
2019-04-03T22:49:37.266Z,74.40
2019-04-03T22:52:08.798Z,74.50
2019-04-03T22:54:38.739Z,74.90
2019-04-03T22:57:09.689Z,74.90
2019-04-03T22:59:39.637Z,74.60
2019-04-03T23:02:09.551Z,74.80
2019-04-03T23:04:41.796Z,74.80
2019-04-03T23:07:10.956Z,75.40
2019-04-03T23:09:40.808Z,74.80
2019-04-03T23:12:10.747Z,75.00
2019-04-03T23:14:40.585Z,75.10
2019-04-03T23:17:11.928Z,75.00
2019-04-03T23:19:44.239Z,74.90
2019-04-03T23:22:14.168Z,74.30
2019-04-03T23:24:44.163Z,74.60
2019-04-03T23:27:14.044Z,74.60
2019-04-03T23:29:44.913Z,74.70
2019-04-03T23:32:15.451Z,74.60
2019-04-03T23:34:46.050Z,74.20
2019-04-03T23:37:15.928Z,74.80
2019-04-03T23:39:45.810Z,74.60
2019-04-03T23:42:15.734Z,74.80
2019-04-03T23:44:45.674Z,75.30
2019-04-03T23:47:16.599Z,75.50
2019-04-03T23:49:47.061Z,75.10
2019-04-03T23:52:17.040Z,75.40
2019-04-03T23:54:46.907Z,75.10
2019-04-03T23:57:16.747Z,75.00
2019-04-03T23:59:46.690Z,75.10
